KHMN

Holloman Air Force Base

Airport
ICAO code
KHMN
IATA Code
HMN
Summary
ICAO Region
NAM
ICAO Territory
Location

Alamogordo, New Mexico

Serving
Alamogordo
Elevation
4093 ft
Coordinates
32° 51' 4" N , 106° 6' 22" W
KCC
Airport RE
Hot and High Operations
Airport WX
Mountain Waves
Metar
KHMN 151755Z AUTO 16008KT 10SM CLR 33/11 A3000 RMK AO2 SLP078 T03260111 10327 20189 57010 $

Holloman Air Force Base is a United States Air Force installation located 6 nm southwest of the central business district of Alamogordo, a city in Otero County, New Mexico, USA.

 

Airport map

Aerial View

SKYbrary Partners:

Safety knowledge contributed by: